Time;durP1;ratioP1;P1;durP2;ratioP2;P2;SDS_P1;SDS_P2;PMS_P1;PMS_P2;Temp;Humidity;BMP_temperature;BMP_pressure;BME280_temperature;BME280_humidity;BME280_pressure;Samples;Min_cycle;Max_cycle;Signal;HPM_P1;HPM_P2
2023/09/28 00:00:42;;;;;;;11.02;8.48;;;;;;;16.10;81.61;100291.13;10449001;28;20047;-77
2023/09/28 00:05:46;;;;;;;13.88;8.38;;;;;;;16.16;81.13;100295.88;10446904;28;20424;-77
2023/09/28 00:10:49;;;;;;;10.23;7.93;;;;;;;16.15;80.89;100307.72;10423867;28;20169;-76
2023/09/28 00:15:53;;;;;;;11.73;8.13;;;;;;;16.20;80.75;100288.28;10436971;28;20155;-77
2023/09/28 00:20:56;;;;;;;8.77;7.85;;;;;;;16.26;80.24;100284.94;10446575;28;20061;-77
2023/09/28 00:25:59;;;;;;;8.45;7.60;;;;;;;16.31;79.72;100271.75;10451189;28;21206;-77
2023/09/28 00:31:06;;;;;;;8.02;6.60;;;;;;;16.25;79.93;100246.13;10447575;28;20043;-76
2023/09/28 00:36:09;;;;;;;8.68;7.45;;;;;;;16.44;79.01;100288.38;10433957;28;20671;-78
2023/09/28 00:41:12;;;;;;;8.45;7.18;;;;;;;16.52;78.56;100284.84;10439754;28;20086;-77
2023/09/28 00:46:17;;;;;;;7.95;7.18;;;;;;;16.54;78.31;100286.38;10458474;28;20856;-76
2023/09/28 00:51:20;;;;;;;8.45;7.53;;;;;;;16.54;78.33;100285.56;10469157;28;20060;-76
2023/09/28 00:56:24;;;;;;;8.68;7.70;;;;;;;16.48;78.76;100283.47;10450667;28;20052;-77
2023/09/28 01:01:31;;;;;;;8.25;7.22;;;;;;;16.41;79.16;100279.75;10448102;28;20048;-77
2023/09/28 01:06:35;;;;;;;8.82;7.85;;;;;;;16.37;79.59;100284.63;10450527;28;20110;-76
2023/09/28 01:11:41;;;;;;;8.68;7.78;;;;;;;16.34;79.24;100299.34;10487107;28;20339;-77
2023/09/28 01:16:45;;;;;;;9.45;8.48;;;;;;;16.36;79.17;100294.63;10461559;28;20057;-77
2023/09/28 01:21:51;;;;;;;8.57;7.00;;;;;;;16.34;79.06;100303.94;10441038;28;20163;-77
2023/09/28 01:26:56;;;;;;;8.63;7.72;;;;;;;16.40;78.94;100289.75;10467406;28;20428;-77
2023/09/28 01:32:00;;;;;;;10.55;6.88;;;;;;;16.47;78.75;100295.34;10435458;28;20071;-76
2023/09/28 01:37:03;;;;;;;9.13;7.82;;;;;;;16.49;78.90;100291.47;10453197;28;20053;-77
2023/09/28 01:42:09;;;;;;;10.48;8.15;;;;;;;16.39;78.74;100292.59;10431682;28;20171;-78
2023/09/28 01:47:12;;;;;;;10.75;8.23;;;;;;;16.41;78.97;100296.00;10448388;28;20420;-76
2023/09/28 01:52:15;;;;;;;10.50;8.48;;;;;;;16.42;79.00;100297.69;10468248;28;20079;-77
2023/09/28 01:57:19;;;;;;;13.27;8.20;;;;;;;16.36;79.04;100294.63;10466340;28;20056;-78
2023/09/28 02:02:22;;;;;;;10.55;9.23;;;;;;;16.24;79.65;100292.38;10441458;28;20056;-78
2023/09/28 02:07:25;;;;;;;10.45;9.00;;;;;;;16.15;80.11;100278.78;10449203;28;20052;-78
2023/09/28 02:12:29;;;;;;;9.15;8.07;;;;;;;16.16;80.34;100298.59;10430742;28;20052;-77
2023/09/28 02:17:32;;;;;;;10.52;8.93;;;;;;;16.17;80.50;100299.44;10444304;28;20045;-78
2023/09/28 02:22:35;;;;;;;9.50;8.23;;;;;;;16.14;80.53;100287.91;10436023;28;20064;-78
2023/09/28 02:27:40;;;;;;;11.40;8.57;;;;;;;16.20;80.56;100297.25;10437481;28;20064;-78
2023/09/28 02:32:44;;;;;;;9.50;8.60;;;;;;;16.12;80.69;100283.66;10415887;28;20051;-77
2023/09/28 02:37:51;;;;;;;11.23;7.53;;;;;;;16.10;81.13;100296.53;10437384;28;20082;-77
2023/09/28 02:42:57;;;;;;;9.27;7.70;;;;;;;16.12;81.18;100292.63;10418873;28;20117;-77
2023/09/28 02:48:00;;;;;;;8.88;7.65;;;;;;;16.15;80.72;100278.78;10425467;28;20397;-77
2023/09/28 02:53:04;;;;;;;9.10;8.10;;;;;;;16.18;80.81;100284.88;10457331;28;20185;-76
2023/09/28 02:58:08;;;;;;;11.80;7.95;;;;;;;16.17;80.61;100283.19;10448605;28;20170;-78
2023/09/28 03:03:12;;;;;;;8.70;7.78;;;;;;;16.22;80.82;100267.28;10454045;28;20115;-78
2023/09/28 03:08:15;;;;;;;10.13;8.02;;;;;;;16.19;80.25;100278.44;10433658;28;20139;-77
2023/09/28 03:13:19;;;;;;;9.73;8.30;;;;;;;16.23;80.26;100274.38;10442883;28;20114;-77
2023/09/28 03:18:22;;;;;;;9.23;7.97;;;;;;;16.25;80.17;100280.50;10473500;28;20044;-75
2023/09/28 03:23:25;;;;;;;9.57;7.70;;;;;;;16.31;79.98;100277.16;10465266;28;20054;-77
2023/09/28 03:28:32;;;;;;;7.95;7.15;;;;;;;16.32;79.60;100295.13;10440659;28;20132;-78
2023/09/28 03:33:35;;;;;;;7.47;6.35;;;;;;;16.38;79.37;100297.19;10453588;28;20044;-78
2023/09/28 03:38:38;;;;;;;8.80;6.68;;;;;;;16.44;78.94;100288.38;10465788;28;20045;-78
2023/09/28 03:43:43;;;;;;;8.50;7.68;;;;;;;16.43;78.69;100297.53;10473258;28;20055;-77
2023/09/28 03:48:46;;;;;;;7.95;6.78;;;;;;;16.44;78.67;100298.38;10462015;28;20526;-78
2023/09/28 03:53:50;;;;;;;8.80;7.93;;;;;;;16.36;79.17;100302.75;10459545;28;20255;-77
2023/09/28 03:58:54;;;;;;;11.00;7.80;;;;;;;16.38;79.31;100318.03;10456543;28;20049;-78
2023/09/28 04:03:57;;;;;;;12.52;8.57;;;;;;;16.26;79.76;100323.72;10452125;28;20049;-77
2023/09/28 04:09:00;;;;;;;8.82;7.45;;;;;;;16.21;80.32;100322.47;10449768;28;20045;-76
2023/09/28 04:14:07;;;;;;;8.82;7.47;;;;;;;16.19;80.47;100338.06;10431011;28;20138;-76
2023/09/28 04:19:11;;;;;;;8.63;7.70;;;;;;;16.12;80.48;100340.56;10455043;28;20091;-78
2023/09/28 04:24:14;;;;;;;9.10;7.43;;;;;;;16.13;80.75;100337.69;10449822;28;20086;-77
2023/09/28 04:29:20;;;;;;;9.43;8.25;;;;;;;16.09;80.46;100340.88;10452059;28;20601;-77
2023/09/28 04:34:24;;;;;;;10.13;8.05;;;;;;;16.01;80.78;100333.56;10437600;28;20071;-77
2023/09/28 04:39:27;;;;;;;12.07;7.68;;;;;;;16.09;79.68;100333.59;10452424;28;20048;-78
2023/09/28 04:44:31;;;;;;;9.57;7.10;;;;;;;16.19;79.20;100341.63;10483847;28;20955;-76
2023/09/28 04:49:34;;;;;;;7.43;6.57;;;;;;;16.30;77.86;100340.53;10479988;28;20058;-78
2023/09/28 04:54:37;;;;;;;7.38;6.68;;;;;;;16.27;77.74;100349.81;10469634;28;20104;-78
2023/09/28 04:59:42;;;;;;;7.07;6.03;;;;;;;16.12;78.30;100360.38;10463150;28;20445;-78
2023/09/28 05:04:45;;;;;;;6.50;5.18;;;;;;;16.47;76.03;100360.41;10452909;28;20044;-78
2023/09/28 05:09:48;;;;;;;6.85;6.05;;;;;;;16.49;75.49;100375.50;10452871;28;20048;-77
2023/09/28 05:14:53;;;;;;;15.20;6.20;;;;;;;16.44;75.54;100366.16;10447738;28;20052;-76
2023/09/28 05:19:55;;;;;;;6.28;5.75;;;;;;;16.44;74.99;100377.00;10457391;28;20052;-77
2023/09/28 05:24:58;;;;;;;4.45;4.05;;;;;;;17.04;71.62;100385.84;10450664;28;20048;-77
2023/09/28 05:30:03;;;;;;;6.22;4.10;;;;;;;17.43;69.64;100382.50;10450305;28;20053;-77
2023/09/28 05:35:07;;;;;;;4.38;3.63;;;;;;;17.54;69.07;100389.47;10450423;28;20048;-77
2023/09/28 05:40:11;;;;;;;5.80;4.18;;;;;;;17.67;68.67;100391.69;10465378;28;20047;-75
2023/09/28 05:45:15;;;;;;;4.93;4.38;;;;;;;17.60;69.04;100394.22;10451001;28;20052;-78
2023/09/28 05:50:19;;;;;;;4.72;3.83;;;;;;;17.52;69.37;100415.09;10451194;28;20048;-78
2023/09/28 05:55:24;;;;;;;6.18;4.55;;;;;;;17.47;69.23;100419.19;10469711;28;20051;-76
2023/09/28 06:00:29;;;;;;;7.82;4.00;;;;;;;17.51;69.14;100427.00;10455914;28;20040;-77
2023/09/28 06:05:32;;;;;;;6.07;3.97;;;;;;;17.60;69.18;100425.97;10449639;28;20051;-77
2023/09/28 06:10:37;;;;;;;5.18;4.00;;;;;;;17.68;68.41;100436.84;10467431;28;20114;-76
2023/09/28 06:15:42;;;;;;;4.50;4.07;;;;;;;17.73;68.61;100456.19;10449095;28;20517;-75
2023/09/28 06:20:45;;;;;;;8.90;4.50;;;;;;;17.75;68.78;100442.47;10452806;28;20060;-77
2023/09/28 06:25:48;;;;;;;6.32;4.43;;;;;;;17.84;68.67;100450.44;10463927;28;21017;-77
2023/09/28 06:30:53;;;;;;;6.22;4.63;;;;;;;17.84;68.92;100447.72;10459114;28;20183;-76
2023/09/28 06:35:56;;;;;;;5.68;4.63;;;;;;;17.85;68.90;100449.44;10463355;28;20055;-77
2023/09/28 06:40:59;;;;;;;6.38;4.38;;;;;;;18.15;67.99;100441.59;10454866;28;20075;-78
2023/09/28 06:46:04;;;;;;;5.85;4.38;;;;;;;18.62;66.44;100432.63;10453853;28;20093;-76
2023/09/28 06:51:07;;;;;;;9.48;4.03;;;;;;;19.00;65.99;100436.38;10438039;28;20052;-79
2023/09/28 06:56:11;;;;;;;6.43;4.88;;;;;;;19.32;65.09;100434.50;10467647;28;20059;-79
2023/09/28 07:01:18;;;;;;;8.43;4.88;;;;;;;19.54;64.46;100451.88;10441928;28;20155;-79
2023/09/28 07:06:22;;;;;;;7.03;4.50;;;;;;;19.85;63.49;100468.19;10464771;28;20044;-78
2023/09/28 07:11:26;;;;;;;6.40;4.80;;;;;;;20.07;63.66;100466.47;10467330;28;21255;-79
2023/09/28 07:16:30;;;;;;;7.68;4.20;;;;;;;20.38;63.37;100481.03;10440561;28;20074;-79
2023/09/28 07:21:34;;;;;;;9.32;4.20;;;;;;;20.41;63.59;100500.63;10454696;28;20056;-78
2023/09/28 07:26:37;;;;;;;6.90;3.65;;;;;;;20.44;62.09;100504.84;10456766;28;20044;-78
2023/09/28 07:31:41;;;;;;;4.40;4.00;;;;;;;20.70;62.64;100507.13;10486888;28;20044;-79
2023/09/28 07:36:45;;;;;;;4.15;3.58;;;;;;;20.75;61.51;100516.44;10483056;28;20051;-79
2023/09/28 07:41:51;;;;;;;4.85;4.22;;;;;;;21.08;61.31;100516.06;10454824;28;20048;-78
2023/09/28 07:46:55;;;;;;;6.75;4.00;;;;;;;20.96;61.36;100520.31;10478623;28;20040;-80
2023/09/28 07:51:58;;;;;;;7.32;4.32;;;;;;;20.88;61.21;100520.41;10447382;28;20131;-78
2023/09/28 07:57:01;;;;;;;4.70;3.95;;;;;;;21.00;61.14;100521.59;10472364;28;20056;-79
2023/09/28 08:02:05;;;;;;;6.50;4.15;;;;;;;20.69;63.76;100522.66;10457627;28;20063;-77
2023/09/28 08:07:08;;;;;;;7.93;4.47;;;;;;;20.51;63.97;100522.16;10465348;28;20067;-78
2023/09/28 08:12:11;;;;;;;9.82;5.15;;;;;;;21.04;62.02;100530.31;10464061;28;20083;-78
2023/09/28 08:17:15;;;;;;;10.18;5.50;;;;;;;20.59;62.61;100529.41;10452380;28;20048;-79
2023/09/28 08:22:18;;;;;;;7.95;4.70;;;;;;;21.01;62.56;100526.88;10478789;28;20064;-79
2023/09/28 08:27:21;;;;;;;9.40;5.05;;;;;;;21.15;61.73;100521.63;10446666;28;20101;-78
2023/09/28 08:32:26;;;;;;;6.93;5.22;;;;;;;21.49;61.96;100528.34;10459547;28;20059;-78
2023/09/28 08:37:29;;;;;;;7.65;4.97;;;;;;;22.12;61.06;100537.66;10466982;28;20123;-77
2023/09/28 08:42:33;;;;;;;6.45;5.22;;;;;;;21.92;61.57;100564.81;10470646;28;20048;-79
2023/09/28 08:47:45;;;;;;;8.60;5.18;;;;;;;21.53;62.12;100563.31;10451330;28;20128;-78
2023/09/28 08:52:48;;;;;;;13.23;5.32;;;;;;;21.31;63.48;100572.47;10469320;28;20147;-79
2023/09/28 08:57:51;;;;;;;10.25;5.40;;;;;;;21.70;61.42;100574.00;10459334;28;20427;-78
2023/09/28 09:02:58;;;;;;;7.72;5.18;;;;;;;21.84;61.60;100573.13;10451381;28;20051;-79
2023/09/28 09:08:02;;;;;;;8.88;5.55;;;;;;;21.15;64.52;100568.06;10460226;28;20044;-78
2023/09/28 09:13:05;;;;;;;7.47;5.70;;;;;;;21.50;64.62;100568.28;10472522;28;20114;-79
2023/09/28 09:18:09;;;;;;;11.85;5.57;;;;;;;21.81;64.55;100573.53;10464082;28;20060;-79
2023/09/28 09:23:13;;;;;;;11.38;5.57;;;;;;;21.93;63.34;100569.22;10474984;28;20486;-78
2023/09/28 09:28:29;;;;;;;12.00;5.60;;;;;;;22.32;63.22;100573.38;10460035;28;20052;-80
2023/09/28 09:33:35;;;;;;;10.05;5.60;;;;;;;22.31;62.59;100568.97;10459882;28;20530;-78
2023/09/28 09:38:38;;;;;;;8.55;5.88;;;;;;;22.62;62.62;100565.84;10436603;28;20074;-77
2023/09/28 09:43:42;;;;;;;7.65;5.00;;;;;;;22.45;64.04;100569.94;10446186;28;20091;-78
2023/09/28 09:48:46;;;;;;;9.35;5.03;;;;;;;23.41;59.93;100567.41;10449891;28;20044;-78
2023/09/28 09:53:49;;;;;;;9.52;5.45;;;;;;;23.42;61.18;100566.34;10449128;28;20056;-78
2023/09/28 09:58:56;;;;;;;8.70;5.35;;;;;;;23.29;60.36;100578.13;10465167;28;20049;-78
2023/09/28 10:04:05;;;;;;;12.35;5.78;;;;;;;22.75;62.24;100570.59;10463918;28;20044;-78
2023/09/28 10:09:10;;;;;;;10.85;6.40;;;;;;;22.21;64.44;100580.22;10464221;28;20484;-78
2023/09/28 10:14:15;;;;;;;9.75;6.30;;;;;;;21.75;65.15;100569.69;10467791;28;20053;-79
2023/09/28 10:19:24;;;;;;;9.68;6.25;;;;;;;21.89;65.65;100579.72;10467955;28;20056;-79
2023/09/28 10:24:31;;;;;;;9.38;6.35;;;;;;;22.14;64.83;100573.88;10471385;28;20040;-78
2023/09/28 10:29:34;;;;;;;9.52;6.25;;;;;;;22.18;65.66;100571.56;10456339;28;21192;-78
2023/09/28 10:34:40;;;;;;;8.73;5.32;;;;;;;22.67;62.64;100576.22;10467804;28;20047;-78
2023/09/28 10:39:43;;;;;;;9.43;6.60;;;;;;;22.55;63.07;100579.50;10470718;28;20045;-78
2023/09/28 10:44:47;;;;;;;8.65;6.90;;;;;;;22.25;64.79;100583.44;10449498;28;20049;-78
2023/09/28 10:49:59;;;;;;;9.38;6.57;;;;;;;22.56;64.15;100591.31;10445091;28;20055;-78
2023/09/28 10:55:02;;;;;;;7.53;5.90;;;;;;;21.85;66.15;100602.16;10473560;28;20538;-78
2023/09/28 11:00:12;;;;;;;11.15;7.30;;;;;;;22.01;64.63;100601.91;10469929;28;20130;-77
2023/09/28 11:05:18;;;;;;;14.85;6.45;;;;;;;21.19;67.35;100603.00;10468577;28;20052;-78
2023/09/28 11:10:24;;;;;;;11.32;6.47;;;;;;;23.14;60.83;100594.66;10458545;28;20052;-78
2023/09/28 11:15:29;;;;;;;10.18;5.15;;;;;;;24.91;55.04;100582.63;10439376;28;20055;-77
2023/09/28 11:20:34;;;;;;;8.07;5.25;;;;;;;24.59;55.73;100591.75;10455785;28;20040;-77
2023/09/28 11:25:39;;;;;;;9.88;5.38;;;;;;;23.83;57.72;100598.38;10435063;28;20052;-77
2023/09/28 11:31:03;;;;;;;11.07;6.05;;;;;;;23.77;58.49;100604.69;10465123;28;20055;-77
2023/09/28 11:36:11;;;;;;;7.05;5.70;;;;;;;25.15;55.77;100592.13;10457030;28;20052;-77
2023/09/28 11:41:15;;;;;;;10.15;5.60;;;;;;;25.48;52.93;100582.91;10458503;28;20040;-77
2023/09/28 11:46:19;;;;;;;11.82;5.00;;;;;;;24.67;54.22;100584.13;10461124;28;20059;-78
2023/09/28 11:51:23;;;;;;;10.90;5.07;;;;;;;24.24;54.72;100565.28;10471545;28;20067;-77
2023/09/28 11:56:26;;;;;;;9.55;4.72;;;;;;;24.72;55.52;100575.25;10461971;28;20053;-78
2023/09/28 12:01:31;;;;;;;11.95;4.82;;;;;;;24.21;57.22;100565.72;10458970;28;20052;-78
2023/09/28 12:06:37;;;;;;;7.05;4.63;;;;;;;23.21;58.58;100579.13;10463066;28;20071;-77
2023/09/28 12:11:40;;;;;;;7.63;4.85;;;;;;;22.37;62.55;100603.75;10457753;28;20059;-77
2023/09/28 12:16:43;;;;;;;9.93;4.80;;;;;;;23.96;57.47;100597.56;10466747;28;20041;-77
2023/09/28 12:21:51;;;;;;;8.43;4.47;;;;;;;24.82;52.52;100588.53;10444399;28;20060;-78
2023/09/28 12:26:54;;;;;;;7.47;3.67;;;;;;;23.80;56.14;100585.06;10457750;28;20055;-78
2023/09/28 12:31:58;;;;;;;6.72;4.25;;;;;;;23.66;57.13;100576.78;10460867;28;20139;-77
2023/09/28 12:37:02;;;;;;;6.68;4.50;;;;;;;24.18;56.57;100571.63;10440210;28;20064;-77
2023/09/28 12:42:05;;;;;;;5.70;3.88;;;;;;;25.55;49.27;100566.38;10460141;28;20048;-77
2023/09/28 12:47:08;;;;;;;5.28;4.20;;;;;;;26.50;47.13;100570.00;10450946;28;20525;-78
2023/09/28 12:52:13;;;;;;;7.57;4.65;;;;;;;26.95;45.58;100564.28;10455774;28;20048;-77
2023/09/28 12:57:16;;;;;;;7.68;5.15;;;;;;;27.52;45.27;100552.19;10438143;28;20044;-77
2023/09/28 13:02:19;;;;;;;5.78;4.70;;;;;;;27.98;44.09;100542.44;10457616;28;20053;-77
2023/09/28 13:07:24;;;;;;;7.97;5.03;;;;;;;27.64;44.25;100555.00;10451950;28;20490;-77
2023/09/28 13:12:28;;;;;;;10.68;5.53;;;;;;;27.30;43.99;100544.38;10457494;28;20126;-77
2023/09/28 13:17:32;;;;;;;6.72;5.50;;;;;;;27.49;44.71;100536.13;10456285;28;20044;-78
2023/09/28 13:22:37;;;;;;;6.07;4.80;;;;;;;29.06;42.66;100532.03;10465724;28;20078;-77
2023/09/28 13:27:41;;;;;;;9.00;6.28;;;;;;;27.75;43.71;100538.47;10459458;28;20511;-78
2023/09/28 13:32:44;;;;;;;7.28;5.57;;;;;;;26.57;46.27;100533.28;10450777;28;20418;-77
2023/09/28 13:37:49;;;;;;;6.72;5.70;;;;;;;26.59;47.27;100540.25;10450934;28;20049;-77
2023/09/28 13:42:53;;;;;;;10.68;5.78;;;;;;;27.72;44.25;100543.63;10457229;28;20981;-77
2023/09/28 13:47:58;;;;;;;10.68;6.38;;;;;;;29.05;41.86;100527.59;10461610;28;20059;-77
2023/09/28 13:53:03;;;;;;;8.48;6.00;;;;;;;29.20;41.98;100522.41;10436072;28;20070;-77
2023/09/28 13:58:07;;;;;;;7.47;4.68;;;;;;;28.19;44.35;100528.06;10471477;28;20057;-77
2023/09/28 14:03:10;;;;;;;6.30;5.38;;;;;;;28.16;44.42;100524.94;10468352;28;20082;-77
2023/09/28 14:08:15;;;;;;;8.85;4.90;;;;;;;27.92;44.09;100522.13;10473549;28;20044;-77
2023/09/28 14:13:18;;;;;;;9.23;4.85;;;;;;;26.26;47.01;100524.88;10473536;28;21131;-77
2023/09/28 14:18:21;;;;;;;6.22;4.40;;;;;;;25.51;49.88;100529.38;10466287;28;20530;-77
2023/09/28 14:23:25;;;;;;;7.18;4.35;;;;;;;25.34;49.92;100518.03;10469577;28;20072;-78
2023/09/28 14:28:29;;;;;;;6.57;4.15;;;;;;;25.62;49.80;100523.19;10462349;28;20535;-77
2023/09/28 14:33:32;;;;;;;7.50;5.03;;;;;;;25.11;51.70;100522.13;10460088;28;20716;-77
2023/09/28 14:38:37;;;;;;;6.57;4.22;;;;;;;23.93;55.14;100530.25;10475195;28;20048;-77
2023/09/28 14:43:40;;;;;;;6.97;4.45;;;;;;;23.87;55.45;100533.81;10466533;28;20415;-77
2023/09/28 14:48:43;;;;;;;8.32;4.47;;;;;;;23.53;56.85;100537.50;10464981;28;20063;-78
2023/09/28 14:53:47;;;;;;;7.15;4.38;;;;;;;23.26;57.49;100518.25;10445383;28;20063;-78
2023/09/28 14:58:52;;;;;;;5.13;4.10;;;;;;;23.66;56.17;100518.34;10447090;28;20596;-78
2023/09/28 15:03:55;;;;;;;9.90;4.57;;;;;;;24.41;54.59;100513.63;10445475;28;20133;-77
2023/09/28 15:09:00;;;;;;;10.82;4.50;;;;;;;24.54;53.93;100499.84;10476232;28;20392;-78
2023/09/28 15:14:02;;;;;;;8.55;5.00;;;;;;;24.70;53.79;100506.78;10474268;28;20052;-78
2023/09/28 15:19:06;;;;;;;7.90;4.00;;;;;;;24.21;55.72;100510.84;10465941;28;20741;-78
2023/09/28 15:24:10;;;;;;;8.35;4.68;;;;;;;23.40;57.95;100530.09;10467708;28;20044;-78
2023/09/28 15:29:13;;;;;;;6.85;4.22;;;;;;;23.47;58.55;100533.69;10470556;28;20048;-78
2023/09/28 15:34:19;;;;;;;9.68;5.20;;;;;;;23.49;58.10;100537.06;10476414;28;20052;-77
2023/09/28 15:39:23;;;;;;;9.77;4.32;;;;;;;23.38;58.57;100540.41;10494447;28;20050;-78
2023/09/28 15:44:26;;;;;;;9.75;4.18;;;;;;;23.07;60.10;100543.63;10482174;28;21208;-78
2023/09/28 15:49:29;;;;;;;5.80;4.15;;;;;;;22.93;61.31;100543.53;10500487;28;20051;-78
2023/09/28 15:54:33;;;;;;;8.82;5.38;;;;;;;22.83;62.02;100543.06;10515206;28;20793;-79
2023/09/28 15:59:37;;;;;;;9.25;5.18;;;;;;;22.74;62.22;100541.53;10465639;28;20048;-77
2023/09/28 16:04:40;;;;;;;11.90;6.13;;;;;;;22.68;62.31;100539.56;10468368;28;20053;-76
2023/09/28 16:09:44;;;;;;;9.20;6.75;;;;;;;22.57;63.28;100546.44;10473185;28;20048;-77
2023/09/28 16:14:47;;;;;;;12.68;7.03;;;;;;;22.41;63.00;100541.25;10462762;28;20139;-77
2023/09/28 16:19:50;;;;;;;9.50;6.95;;;;;;;22.43;64.10;100544.63;10444179;28;20044;-77
2023/09/28 16:24:54;;;;;;;8.85;6.75;;;;;;;22.34;64.00;100550.25;10459536;28;20456;-77
2023/09/28 16:29:57;;;;;;;7.88;6.70;;;;;;;22.16;64.67;100547.16;10453441;28;20056;-77
2023/09/28 16:35:00;;;;;;;12.40;7.43;;;;;;;22.00;65.23;100548.28;10447420;28;20052;-78
2023/09/28 16:40:06;;;;;;;14.75;7.50;;;;;;;21.86;66.10;100549.19;10480531;28;20074;-78
2023/09/28 16:45:09;;;;;;;10.90;7.65;;;;;;;21.66;66.58;100548.91;10466850;28;20048;-77
2023/09/28 16:50:12;;;;;;;9.90;6.80;;;;;;;21.58;67.24;100552.63;10466741;28;20051;-77
2023/09/28 16:55:17;;;;;;;9.70;7.25;;;;;;;21.35;66.99;100536.38;10457852;28;20040;-77
2023/09/28 17:00:20;;;;;;;8.90;6.82;;;;;;;21.14;67.92;100547.25;10442681;28;20050;-77
2023/09/28 17:05:23;;;;;;;10.13;6.70;;;;;;;20.98;68.60;100540.94;10455798;28;20060;-77
2023/09/28 17:10:27;;;;;;;10.07;7.18;;;;;;;20.81;68.91;100527.63;10465662;28;20127;-79
2023/09/28 17:15:30;;;;;;;10.55;6.72;;;;;;;20.71;69.37;100523.31;10459436;28;20507;-77
2023/09/28 17:20:33;;;;;;;9.95;6.70;;;;;;;20.41;70.84;100511.53;10468061;28;20062;-76
2023/09/28 17:25:37;;;;;;;9.00;7.15;;;;;;;20.21;72.07;100508.41;10462592;28;20679;-77
2023/09/28 17:30:41;;;;;;;10.60;7.75;;;;;;;20.21;71.88;100502.13;10432604;28;20101;-76
2023/09/28 17:35:44;;;;;;;9.05;7.10;;;;;;;20.04;72.63;100502.28;10459937;28;20120;-77
2023/09/28 17:46:17;;;;;;;15.05;7.82;;;;;;;19.56;74.80;100522.59;10307395;28;20114;-80
2023/09/28 17:51:21;;;;;;;10.80;7.32;;;;;;;19.54;74.29;100517.28;10286522;28;20111;-79
2023/09/28 17:56:23;;;;;;;11.27;7.47;;;;;;;19.28;74.93;100530.34;10257982;28;20058;-81
2023/09/28 18:01:28;;;;;;;8.13;7.32;;;;;;;18.87;77.05;100545.00;10258448;28;20066;-78
2023/09/28 18:06:30;;;;;;;10.73;7.03;;;;;;;19.10;76.65;100552.41;10260354;28;20051;-78
2023/09/28 18:11:37;;;;;;;13.57;7.43;;;;;;;19.23;75.79;100552.69;10268401;28;20043;-79
2023/09/28 18:16:44;;;;;;;11.55;8.20;;;;;;;19.22;75.32;100550.97;10266408;28;20057;-82
2023/09/28 18:21:46;;;;;;;10.75;7.68;;;;;;;18.89;76.39;100553.81;10253796;28;20065;-79
2023/09/28 18:26:49;;;;;;;11.25;8.50;;;;;;;19.04;76.45;100564.00;10258499;28;20046;-80
2023/09/28 18:31:54;;;;;;;12.80;8.40;;;;;;;18.79;76.97;100569.50;10261195;28;20063;-79
2023/09/28 18:36:56;;;;;;;14.05;8.32;;;;;;;18.90;77.02;100562.84;10246058;28;20058;-79
2023/09/28 18:41:59;;;;;;;12.38;8.68;;;;;;;18.89;76.75;100577.47;10254376;28;20058;-79
2023/09/28 18:47:04;;;;;;;13.65;9.45;;;;;;;18.99;76.60;100568.09;10262644;28;20042;-80
2023/09/28 18:52:07;;;;;;;13.55;9.70;;;;;;;18.86;76.46;100573.22;10257230;28;20480;-78
2023/09/28 18:57:10;;;;;;;13.32;10.13;;;;;;;18.74;77.18;100572.72;10261235;28;20043;-79
2023/09/28 19:02:15;;;;;;;10.27;8.65;;;;;;;18.75;77.38;100562.69;10254297;28;20054;-81
2023/09/28 19:07:20;;;;;;;11.45;8.45;;;;;;;18.82;76.98;100563.72;10251671;28;20130;-79
2023/09/28 19:12:23;;;;;;;12.75;8.80;;;;;;;18.86;76.85;100550.59;10263551;28;20119;-79
2023/09/28 19:17:27;;;;;;;10.73;8.50;;;;;;;18.80;76.17;100558.44;10274078;28;20050;-78
2023/09/28 19:22:31;;;;;;;9.88;7.95;;;;;;;18.77;76.04;100564.19;10282942;28;20047;-79
2023/09/28 19:27:37;;;;;;;13.27;9.45;;;;;;;18.65;76.44;100565.59;10271821;28;20046;-80
2023/09/28 19:32:43;;;;;;;11.32;10.05;;;;;;;18.53;76.57;100566.97;10269640;28;20047;-80
2023/09/28 19:37:46;;;;;;;16.60;10.50;;;;;;;18.35;77.74;100554.41;10263622;28;20502;-80
2023/09/28 19:42:49;;;;;;;14.70;12.52;;;;;;;18.34;78.17;100566.28;10266178;28;21056;-81
2023/09/28 19:47:53;;;;;;;14.15;11.77;;;;;;;18.22;78.49;100562.22;10262780;28;20058;-80
2023/09/28 19:52:56;;;;;;;18.23;12.60;;;;;;;;;;10256028;28;20581;-79
2023/09/28 19:57:59;;;;;;;16.50;13.57;;;;;;;18.09;80.38;100560.00;10261588;28;20050;-80
2023/09/28 20:03:03;;;;;;;18.15;14.13;;;;;;;17.99;80.73;100550.31;10259375;28;20047;-80
2023/09/28 20:08:07;;;;;;;21.75;16.48;;;;;;;17.91;80.93;100532.97;10245176;28;20059;-78
2023/09/28 20:13:10;;;;;;;24.10;17.48;;;;;;;17.84;81.69;100537.38;10251392;28;20081;-79
2023/09/28 20:18:14;;;;;;;20.52;18.48;;;;;;;17.80;82.38;100532.44;10260712;28;20050;-79
2023/09/28 20:23:18;;;;;;;22.38;18.05;;;;;;;17.80;82.57;100546.91;10258233;28;21081;-79
2023/09/28 20:28:21;;;;;;;22.02;18.20;;;;;;;17.84;82.67;100542.81;10264629;28;20054;-79
2023/09/28 20:33:25;;;;;;;25.60;18.38;;;;;;;17.76;83.19;100534.66;10279982;28;20042;-79
2023/09/28 20:38:28;;;;;;;21.98;17.52;;;;;;;17.73;83.44;100524.13;10267006;28;20106;-80
2023/09/28 20:43:31;;;;;;;22.05;18.00;;;;;;;17.60;84.38;100521.03;10262580;28;20054;-79
2023/09/28 20:48:36;;;;;;;23.90;18.90;;;;;;;17.74;84.35;100520.38;10258152;28;20137;-82
2023/09/28 20:53:39;;;;;;;23.40;19.15;;;;;;;17.84;83.73;100520.22;10260567;28;20046;-79
2023/09/28 20:58:42;;;;;;;21.33;19.02;;;;;;;17.89;83.82;100529.56;10255828;28;20051;-80
2023/09/28 21:03:47;;;;;;;25.00;19.27;;;;;;;17.96;83.55;100523.44;10250477;28;20074;-80
2023/09/28 21:08:50;;;;;;;23.65;19.45;;;;;;;17.97;83.88;100536.03;10257233;28;20214;-78
2023/09/28 21:13:53;;;;;;;22.48;18.60;;;;;;;17.92;84.43;100526.50;10249792;28;20058;-79
2023/09/28 21:18:57;;;;;;;20.75;18.42;;;;;;;17.93;84.46;100530.91;10241619;28;21077;-78
2023/09/28 21:24:01;;;;;;;22.60;18.77;;;;;;;17.93;84.51;100524.63;10249956;28;20051;-80
2023/09/28 21:29:04;;;;;;;24.63;18.25;;;;;;;17.78;84.57;100523.63;10268154;28;20109;-78
2023/09/28 21:34:08;;;;;;;21.48;19.25;;;;;;;17.75;85.20;100529.41;10261483;28;20066;-80
2023/09/28 21:39:12;;;;;;;22.65;17.63;;;;;;;17.73;85.41;100534.97;10254672;28;20192;-81
2023/09/28 21:44:15;;;;;;;19.33;17.10;;;;;;;17.80;85.19;100517.00;10256393;28;20137;-80
2023/09/28 21:49:20;;;;;;;20.60;17.15;;;;;;;17.78;84.48;100512.75;10252167;28;20074;-80
2023/09/28 21:54:23;;;;;;;21.35;17.25;;;;;;;17.68;84.81;100524.59;10275837;28;20061;-79
2023/09/28 21:59:26;;;;;;;23.00;17.60;;;;;;;17.76;84.72;100509.34;10256505;28;20043;-80
2023/09/28 22:04:31;;;;;;;20.90;18.00;;;;;;;17.75;84.15;100494.09;10262462;28;20114;-80
2023/09/28 22:09:33;;;;;;;23.98;16.88;;;;;;;17.51;84.50;100490.31;10256553;28;20050;-80
2023/09/28 22:14:36;;;;;;;21.05;17.77;;;;;;;17.40;85.01;100496.91;10256893;28;20054;-79
2023/09/28 22:19:41;;;;;;;23.08;19.70;;;;;;;17.34;85.76;100503.00;10267204;28;20082;-79
2023/09/28 22:24:43;;;;;;;23.70;19.83;;;;;;;17.26;85.73;100494.84;10265387;28;20053;-80
2023/09/28 22:29:47;;;;;;;20.02;17.05;;;;;;;16.92;87.14;100498.41;10261819;28;20057;-79
2023/09/28 22:34:51;;;;;;;25.52;17.48;;;;;;;16.84;87.89;100492.97;10264087;28;20054;-79
2023/09/28 22:39:55;;;;;;;19.92;16.63;;;;;;;16.92;87.37;100493.00;10263394;28;20386;-79
2023/09/28 22:45:02;;;;;;;18.77;16.40;;;;;;;16.96;87.11;100488.09;10258682;28;20051;-79
2023/09/28 22:50:08;;;;;;;20.52;17.58;;;;;;;16.92;86.76;100476.72;10263644;28;20051;-79
2023/09/28 22:55:12;;;;;;;20.30;16.17;;;;;;;16.80;86.74;100492.41;10260061;28;20061;-79
2023/09/28 23:00:15;;;;;;;22.30;18.40;;;;;;;16.69;86.86;100483.72;10261126;28;20098;-80
2023/09/28 23:05:19;;;;;;;18.95;16.95;;;;;;;16.67;87.38;100499.28;10264404;28;20039;-78
2023/09/28 23:10:22;;;;;;;21.58;19.17;;;;;;;16.74;87.40;100492.22;10275474;28;21258;-79